Terminal Aerodrome Forecast
Issued by NWS Sterling, VA

Home | Current Version | Previous Version | Text Only | Print | Product List | Glossary On
Versions: 1 2 3 4 5 6 7 8 9 10 11 12 13 14 15 16 17 18 19 20 21
000
FTUS41 KLWX 260539
TAFBWI
TAF
KBWI 260539Z 2606/2712 08010KT P6SM OVC060
     FM260900 06012G18KT P6SM OVC015
     FM261000 08008KT P6SM OVC008
     FM261500 09009KT 3SM -DZ OVC008
     FM262100 09011KT 4SM -DZ BKN015
     FM270000 09010KT 2SM -DZRA OVC008
     FM270600 14006KT P6SM OVC010 WS020/19035KT
     FM271100 18007KT P6SM OVC010 WS020/21035KT=

USA.gov is the U.S. government's official web portal to all federal, state and local government web resources and services.